createdAt,value
2019-05-10T00:00:19.980Z,97644.00
2019-05-10T00:03:05.316Z,97643.00
2019-05-10T00:05:51.308Z,97649.00
2019-05-10T00:08:37.228Z,97647.00
2019-05-10T00:11:07.338Z,97656.00
2019-05-10T00:13:49.851Z,97656.00
2019-05-10T00:16:17.613Z,97657.00
2019-05-10T00:18:45.021Z,97654.00
2019-05-10T00:21:12.082Z,97659.00
2019-05-10T00:23:39.122Z,97659.00
2019-05-10T00:26:06.207Z,97666.00
2019-05-10T00:28:33.291Z,97665.00
2019-05-10T00:31:00.601Z,97661.00
2019-05-10T00:33:27.768Z,97673.00
2019-05-10T00:35:55.926Z,97668.00
2019-05-10T00:38:23.181Z,97664.00
2019-05-10T00:40:50.296Z,97668.00
2019-05-10T00:43:17.480Z,97674.00
2019-05-10T00:45:45.655Z,97672.00
2019-05-10T00:48:12.709Z,97674.00
2019-05-10T00:50:40.154Z,97677.00
2019-05-10T00:53:07.334Z,97681.00
2019-05-10T00:55:34.384Z,97675.00
2019-05-10T00:58:01.499Z,97683.00
2019-05-10T01:00:28.756Z,97683.00
2019-05-10T01:02:55.834Z,97682.00
2019-05-10T01:05:22.940Z,97680.00
2019-05-10T01:07:50.094Z,97683.00
2019-05-10T01:10:17.164Z,97684.00
2019-05-10T01:12:44.295Z,97676.00
2019-05-10T01:15:12.108Z,97691.00
2019-05-10T01:17:39.153Z,97685.00
2019-05-10T01:20:07.259Z,97693.00
2019-05-10T01:22:34.430Z,97690.00
2019-05-10T01:25:01.745Z,97686.00
2019-05-10T01:27:29.125Z,97693.00
2019-05-10T01:29:56.159Z,97688.00
2019-05-10T01:32:23.239Z,97693.00
2019-05-10T01:34:50.299Z,97703.00
2019-05-10T01:37:17.420Z,97699.00
2019-05-10T01:39:44.661Z,97704.00
2019-05-10T01:42:11.954Z,97700.00
2019-05-10T01:44:38.971Z,97708.00
2019-05-10T01:47:06.102Z,97700.00
2019-05-10T01:49:34.521Z,97712.00
2019-05-10T01:52:01.631Z,97714.00
2019-05-10T01:54:28.680Z,97714.00
2019-05-10T01:56:55.776Z,97722.00
2019-05-10T01:59:22.846Z,97722.00
2019-05-10T02:01:49.967Z,97725.00
2019-05-10T02:04:17.858Z,97719.00
2019-05-10T02:06:46.746Z,97732.00
2019-05-10T02:09:13.781Z,97733.00
2019-05-10T02:11:40.891Z,97730.00
2019-05-10T02:14:08.419Z,97734.00
2019-05-10T02:16:35.431Z,97739.00
2019-05-10T02:19:02.519Z,97734.00
2019-05-10T02:21:29.568Z,97737.00
2019-05-10T02:23:56.605Z,97742.00
2019-05-10T02:26:23.704Z,97752.00
2019-05-10T02:28:50.758Z,97756.00
2019-05-10T02:31:21.498Z,97755.00
2019-05-10T02:33:46.764Z,97766.00
2019-05-10T02:36:13.835Z,97762.00
2019-05-10T02:38:40.944Z,97765.00
2019-05-10T02:41:07.988Z,97766.00
2019-05-10T02:43:35.080Z,97766.00
2019-05-10T02:46:02.110Z,97773.00
2019-05-10T02:48:29.218Z,97772.00
2019-05-10T02:50:56.268Z,97770.00
2019-05-10T02:53:23.830Z,97777.00
2019-05-10T02:55:51.369Z,97782.00
2019-05-10T02:58:18.398Z,97777.00
2019-05-10T03:00:48.966Z,97774.00
2019-05-10T03:03:17.044Z,97774.00
2019-05-10T03:05:48.490Z,97774.00
2019-05-10T03:08:13.795Z,97786.00
2019-05-10T03:10:57.684Z,97782.00
2019-05-10T03:13:27.810Z,97783.00
2019-05-10T03:15:57.743Z,97797.00
2019-05-10T03:18:29.338Z,97788.00
2019-05-10T03:20:59.435Z,97799.00
2019-05-10T03:23:27.939Z,97798.00
2019-05-10T03:25:55.026Z,97802.00
2019-05-10T03:28:22.060Z,97796.00
2019-05-10T03:30:49.185Z,97805.00
2019-05-10T03:33:16.243Z,97804.00
2019-05-10T03:35:44.323Z,97815.00
2019-05-10T03:38:12.064Z,97814.00
2019-05-10T03:40:39.110Z,97816.00
2019-05-10T03:43:06.309Z,97815.00
2019-05-10T03:45:33.348Z,97820.00
2019-05-10T03:48:00.526Z,97811.00
2019-05-10T03:50:27.670Z,97825.00
2019-05-10T03:52:54.719Z,97820.00
2019-05-10T03:55:21.779Z,97828.00
2019-05-10T03:57:48.974Z,97835.00
2019-05-10T04:00:16.149Z,97832.00
2019-05-10T04:02:43.171Z,97835.00
2019-05-10T04:05:10.848Z,97846.00
2019-05-10T04:07:37.917Z,97844.00
2019-05-10T04:10:07.095Z,97846.00
2019-05-10T04:12:34.526Z,97859.00
2019-05-10T04:15:01.803Z,97853.00
2019-05-10T04:17:28.972Z,97859.00
2019-05-10T04:22:24.548Z,97866.00
2019-05-10T04:24:51.644Z,97872.00
2019-05-10T04:27:31.700Z,97872.00
2019-05-10T04:29:47.682Z,97874.00
2019-05-10T04:32:14.832Z,97875.00
2019-05-10T04:34:41.947Z,97877.00
2019-05-10T04:37:09.035Z,97880.00
2019-05-10T04:39:36.097Z,97878.00
2019-05-10T04:42:03.163Z,97877.00
2019-05-10T04:44:31.967Z,97879.00
2019-05-10T04:46:59.177Z,97887.00
2019-05-10T04:49:26.230Z,97878.00
2019-05-10T04:51:53.757Z,97891.00
2019-05-10T04:54:20.801Z,97883.00
2019-05-10T04:56:48.083Z,97894.00
2019-05-10T04:59:15.115Z,97893.00
2019-05-10T05:01:42.629Z,97895.00
2019-05-10T05:04:09.979Z,97902.00
2019-05-10T05:06:37.091Z,97903.00
2019-05-10T05:09:05.814Z,97902.00
2019-05-10T05:11:32.885Z,97911.00
2019-05-10T05:14:01.302Z,97899.00
2019-05-10T05:16:28.397Z,97908.00
2019-05-10T05:18:55.442Z,97901.00
2019-05-10T05:21:22.657Z,97906.00
2019-05-10T05:23:51.109Z,97910.00
2019-05-10T05:26:18.319Z,97905.00
2019-05-10T05:28:47.239Z,97908.00
2019-05-10T05:31:14.313Z,97911.00
2019-05-10T05:33:41.390Z,97915.00
2019-05-10T05:36:08.848Z,97920.00
2019-05-10T05:38:40.333Z,97917.00
2019-05-10T05:41:04.885Z,97922.00
2019-05-10T05:43:32.099Z,97928.00
2019-05-10T05:45:59.149Z,97924.00
2019-05-10T05:48:39.456Z,97927.00
2019-05-10T05:50:55.179Z,97932.00
2019-05-10T05:53:22.740Z,97934.00
2019-05-10T05:55:50.072Z,97927.00
2019-05-10T05:58:26.530Z,97927.00
2019-05-10T06:00:46.796Z,97933.00
2019-05-10T06:03:24.761Z,97933.00
2019-05-10T06:05:43.156Z,97934.00
2019-05-10T06:08:23.049Z,97925.00
2019-05-10T06:10:39.267Z,97940.00
2019-05-10T06:13:06.382Z,97939.00
2019-05-10T06:15:33.412Z,97935.00
2019-05-10T06:18:03.293Z,97929.00
2019-05-10T06:20:29.518Z,97930.00
2019-05-10T06:23:06.581Z,97932.00
2019-05-10T06:25:38.815Z,97935.00
2019-05-10T06:27:54.567Z,97944.00
2019-05-10T06:30:22.199Z,97941.00
2019-05-10T06:32:53.375Z,97945.00
2019-05-10T06:35:19.395Z,97947.00
2019-05-10T06:37:47.211Z,97951.00
2019-05-10T06:40:14.409Z,97959.00
2019-05-10T06:42:41.817Z,97950.00
2019-05-10T06:45:14.674Z,97945.00
2019-05-10T06:47:42.140Z,97951.00
2019-05-10T06:50:08.067Z,97954.00
2019-05-10T06:52:35.162Z,97962.00
2019-05-10T06:55:04.651Z,97964.00
2019-05-10T06:57:31.736Z,97961.00
2019-05-10T07:00:06.123Z,97959.00
2019-05-10T07:02:32.309Z,97960.00
2019-05-10T07:04:57.977Z,97969.00
2019-05-10T07:07:42.709Z,97960.00
2019-05-10T07:10:12.404Z,97977.00
2019-05-10T07:12:24.070Z,97966.00
2019-05-10T07:17:18.707Z,97966.00
2019-05-10T07:19:53.898Z,97960.00
2019-05-10T07:22:14.847Z,97974.00
2019-05-10T07:24:42.336Z,97967.00
2019-05-10T07:27:09.426Z,97972.00
2019-05-10T07:29:42.883Z,97967.00
2019-05-10T07:32:05.454Z,97984.00
2019-05-10T07:34:32.526Z,97980.00
2019-05-10T07:37:01.806Z,97991.00
2019-05-10T07:39:28.597Z,97986.00
2019-05-10T07:42:00.406Z,97992.00
2019-05-10T07:44:25.123Z,97993.00
2019-05-10T07:46:56.386Z,97979.00
2019-05-10T07:49:23.780Z,97983.00
2019-05-10T07:51:50.272Z,97980.00
2019-05-10T07:54:17.437Z,97993.00
2019-05-10T07:56:45.650Z,97984.00
2019-05-10T07:59:16.286Z,97981.00
2019-05-10T08:01:42.386Z,97990.00
2019-05-10T08:04:12.884Z,97987.00
2019-05-10T08:06:44.101Z,97992.00
2019-05-10T08:09:09.713Z,97992.00
2019-05-10T08:11:39.103Z,97995.00
2019-05-10T08:14:10.407Z,97987.00
2019-05-10T08:16:35.190Z,97984.00
2019-05-10T08:19:02.463Z,97990.00
2019-05-10T08:21:32.057Z,97986.00
2019-05-10T08:24:03.904Z,97996.00
2019-05-10T08:26:27.752Z,97993.00
2019-05-10T08:28:54.797Z,97988.00
2019-05-10T08:31:25.894Z,97997.00
2019-05-10T08:33:57.303Z,98008.00
2019-05-10T08:36:21.930Z,98006.00
2019-05-10T08:39:00.556Z,98005.00
2019-05-10T08:41:18.529Z,98003.00
2019-05-10T08:43:45.772Z,98001.00
2019-05-10T08:46:12.847Z,97991.00
2019-05-10T08:48:46.170Z,98001.00
2019-05-10T08:51:12.340Z,98009.00
2019-05-10T08:53:42.193Z,98011.00
2019-05-10T08:56:13.917Z,98008.00
2019-05-10T09:01:30.126Z,98000.00
2019-05-10T09:03:59.915Z,98009.00
2019-05-10T09:06:22.476Z,98008.00
2019-05-10T09:08:52.938Z,98005.00
2019-05-10T09:11:18.573Z,98013.00
2019-05-10T09:13:46.315Z,98028.00
2019-05-10T09:16:13.723Z,98029.00
2019-05-10T09:18:46.193Z,98018.00
2019-05-10T09:21:14.226Z,98027.00
2019-05-10T09:23:42.639Z,98021.00
2019-05-10T09:26:15.702Z,98014.00
2019-05-10T09:28:38.448Z,98026.00
2019-05-10T09:31:18.770Z,98010.00
2019-05-10T09:33:43.305Z,98009.00
2019-05-10T09:36:05.609Z,98013.00
2019-05-10T09:38:34.826Z,98016.00
2019-05-10T09:41:02.833Z,98021.00
2019-05-10T09:43:31.922Z,98014.00
2019-05-10T09:45:58.908Z,98018.00
2019-05-10T09:48:26.002Z,98022.00
2019-05-10T09:51:13.716Z,98016.00
2019-05-10T09:53:41.092Z,98022.00
2019-05-10T09:56:08.177Z,98023.00
2019-05-10T09:58:38.374Z,98023.00
2019-05-10T10:01:14.757Z,98021.00
2019-05-10T10:03:39.765Z,98023.00
2019-05-10T10:06:07.807Z,98018.00
2019-05-10T10:08:31.817Z,98027.00
2019-05-10T10:11:10.349Z,98027.00
2019-05-10T10:13:39.302Z,98018.00
2019-05-10T10:15:58.179Z,98032.00
2019-05-10T10:18:25.662Z,98033.00
2019-05-10T10:20:54.287Z,98030.00
2019-05-10T10:23:24.661Z,98041.00
2019-05-10T10:25:50.395Z,98041.00
2019-05-10T10:28:21.247Z,98038.00
2019-05-10T10:30:50.479Z,98044.00
2019-05-10T10:33:25.204Z,98046.00
2019-05-10T10:35:48.260Z,98049.00
2019-05-10T10:38:17.484Z,98057.00
2019-05-10T10:40:46.030Z,98053.00
2019-05-10T10:43:13.563Z,98064.00
2019-05-10T10:45:40.826Z,98073.00
2019-05-10T10:48:12.634Z,98081.00
2019-05-10T10:50:36.892Z,98085.00
2019-05-10T10:53:04.436Z,98087.00
2019-05-10T10:55:36.659Z,98094.00
2019-05-10T10:58:00.927Z,98091.00
2019-05-10T11:00:37.899Z,98105.00
2019-05-10T11:03:05.026Z,98120.00
2019-05-10T11:05:32.041Z,98114.00
2019-05-10T11:08:01.066Z,98112.00
2019-05-10T11:10:31.174Z,98117.00
2019-05-10T11:13:13.255Z,98117.00
2019-05-10T11:15:36.222Z,98120.00
2019-05-10T11:18:04.183Z,98117.00
2019-05-10T11:20:31.881Z,98123.00
2019-05-10T11:23:00.758Z,98126.00
2019-05-10T11:25:27.812Z,98126.00
2019-05-10T11:27:58.645Z,98121.00
2019-05-10T11:30:23.899Z,98124.00
2019-05-10T11:32:50.965Z,98136.00
2019-05-10T11:35:27.776Z,98134.00
2019-05-10T11:37:50.710Z,98134.00
2019-05-10T11:40:27.747Z,98140.00
2019-05-10T11:42:48.079Z,98145.00
2019-05-10T11:45:16.252Z,98144.00
2019-05-10T11:47:43.297Z,98141.00
2019-05-10T11:50:26.581Z,98147.00
2019-05-10T11:52:40.953Z,98147.00
2019-05-10T11:55:11.325Z,98150.00
2019-05-10T11:57:43.899Z,98137.00
2019-05-10T12:00:14.687Z,98140.00
2019-05-10T12:03:00.922Z,98137.00
2019-05-10T12:07:43.368Z,98143.00
2019-05-10T12:10:16.996Z,98146.00
2019-05-10T12:12:54.067Z,98147.00
2019-05-10T12:15:07.291Z,98147.00
2019-05-10T12:17:34.370Z,98142.00
2019-05-10T12:20:02.625Z,98140.00
2019-05-10T12:22:38.272Z,98146.00
2019-05-10T12:26:13.468Z,98133.00
2019-05-10T12:26:18.978Z,98137.00
2019-05-10T12:27:43.701Z,98128.00
2019-05-10T12:30:02.638Z,98120.00
2019-05-10T12:32:35.216Z,98117.00
2019-05-10T12:34:56.706Z,98114.00
2019-05-10T12:37:23.935Z,98107.00
2019-05-10T12:39:53.070Z,98110.00
2019-05-10T12:42:21.837Z,98110.00
2019-05-10T12:44:51.455Z,98111.00
2019-05-10T12:47:18.052Z,98112.00
2019-05-10T12:49:45.126Z,98114.00
2019-05-10T12:52:14.143Z,98111.00
2019-05-10T12:54:41.675Z,98116.00
2019-05-10T12:57:08.810Z,98112.00
2019-05-10T12:59:36.593Z,98114.00
2019-05-10T13:02:11.030Z,98111.00
2019-05-10T13:04:40.653Z,98108.00
2019-05-10T13:07:04.262Z,98110.00
2019-05-10T13:09:39.531Z,98103.00
2019-05-10T13:12:04.072Z,98103.00
2019-05-10T13:14:29.441Z,98099.00
2019-05-10T13:16:56.483Z,98089.00
2019-05-10T13:19:23.563Z,98090.00
2019-05-10T13:21:53.681Z,98083.00
2019-05-10T13:24:19.851Z,98079.00
2019-05-10T13:26:48.169Z,98074.00
2019-05-10T13:29:15.623Z,98075.00
2019-05-10T13:31:44.426Z,98063.00
2019-05-10T13:34:11.826Z,98060.00
2019-05-10T13:36:39.944Z,98056.00
2019-05-10T13:39:07.361Z,98049.00
2019-05-10T13:41:34.644Z,98058.00
2019-05-10T13:44:04.907Z,98048.00
2019-05-10T13:46:30.656Z,98050.00
2019-05-10T13:48:58.008Z,98055.00
2019-05-10T13:51:25.076Z,98062.00
2019-05-10T13:53:53.977Z,98067.00
2019-05-10T13:56:21.156Z,98081.00
2019-05-10T13:58:48.199Z,98079.00
2019-05-10T14:01:15.285Z,98070.00
2019-05-10T14:03:48.123Z,98077.00
2019-05-10T14:06:12.445Z,98080.00
2019-05-10T14:08:43.011Z,98091.00
2019-05-10T14:11:08.778Z,98137.00
2019-05-10T14:13:41.175Z,98170.00
2019-05-10T14:16:06.307Z,98191.00
2019-05-10T14:18:33.516Z,98195.00
2019-05-10T14:21:00.666Z,98206.00
2019-05-10T14:23:28.818Z,98211.00
2019-05-10T14:25:56.801Z,98218.00
2019-05-10T14:28:24.053Z,98215.00
2019-05-10T14:30:57.003Z,98193.00
2019-05-10T14:33:21.089Z,98192.00
2019-05-10T14:35:48.453Z,98183.00
2019-05-10T14:38:15.922Z,98180.00
2019-05-10T14:40:43.023Z,98178.00
2019-05-10T14:43:10.129Z,98163.00
2019-05-10T14:45:37.268Z,98160.00
2019-05-10T14:48:04.382Z,98163.00
2019-05-10T14:50:31.445Z,98161.00
2019-05-10T14:52:58.611Z,98160.00
2019-05-10T14:55:28.013Z,98156.00
2019-05-10T14:57:56.390Z,98157.00
2019-05-10T15:00:23.635Z,98161.00
2019-05-10T15:02:56.617Z,98157.00
2019-05-10T15:05:20.799Z,98155.00
2019-05-10T15:07:51.049Z,98150.00
2019-05-10T15:10:18.195Z,98149.00
2019-05-10T15:12:46.649Z,98152.00
2019-05-10T15:15:14.319Z,98149.00
2019-05-10T15:17:41.399Z,98147.00
2019-05-10T15:20:08.716Z,98144.00
2019-05-10T15:22:35.971Z,98142.00
2019-05-10T15:25:05.669Z,98137.00
2019-05-10T15:27:32.824Z,98133.00
2019-05-10T15:30:05.211Z,98131.00
2019-05-10T15:32:29.168Z,98143.00
2019-05-10T15:35:06.383Z,98137.00
2019-05-10T15:37:26.329Z,98139.00
2019-05-10T15:39:53.479Z,98147.00
2019-05-10T15:42:22.023Z,98145.00
2019-05-10T15:44:49.543Z,98147.00
2019-05-10T15:47:20.441Z,98148.00
2019-05-10T15:49:45.558Z,98144.00
2019-05-10T15:54:44.502Z,98135.00
2019-05-10T15:57:14.580Z,98138.00
2019-05-10T15:59:23.579Z,98142.00
2019-05-10T15:59:40.842Z,98139.00
2019-05-10T16:02:07.873Z,98144.00
2019-05-10T16:04:35.046Z,98142.00
2019-05-10T16:07:02.351Z,98144.00
2019-05-10T16:09:31.650Z,98150.00
2019-05-10T16:12:02.353Z,98156.00
2019-05-10T16:17:01.557Z,98150.00
2019-05-10T16:19:28.645Z,98153.00
2019-05-10T16:21:58.173Z,98153.00
2019-05-10T16:24:27.771Z,98146.00
2019-05-10T16:26:59.883Z,98150.00
2019-05-10T16:29:24.882Z,98145.00
2019-05-10T16:31:51.997Z,98143.00
2019-05-10T16:34:19.141Z,98147.00
2019-05-10T16:36:46.212Z,98146.00
2019-05-10T16:39:14.236Z,98150.00
2019-05-10T16:41:41.315Z,98151.00
2019-05-10T16:44:08.390Z,98153.00
2019-05-10T16:46:35.466Z,98155.00
2019-05-10T16:49:02.690Z,98155.00
2019-05-10T16:51:29.874Z,98149.00
2019-05-10T16:53:57.025Z,98147.00
2019-05-10T16:56:24.270Z,98148.00
2019-05-10T16:58:53.198Z,98152.00
2019-05-10T17:01:24.977Z,98147.00
2019-05-10T17:03:51.247Z,98153.00
2019-05-10T17:06:18.414Z,98151.00
2019-05-10T17:08:45.465Z,98159.00
2019-05-10T17:11:12.890Z,98158.00
2019-05-10T17:13:41.503Z,98166.00
2019-05-10T17:16:11.591Z,98157.00
2019-05-10T17:18:38.109Z,98163.00
2019-05-10T17:21:05.254Z,98164.00
2019-05-10T17:23:32.358Z,98164.00
2019-05-10T17:25:59.408Z,98178.00
2019-05-10T17:28:29.454Z,98172.00
2019-05-10T17:31:00.040Z,98169.00
2019-05-10T17:33:24.454Z,98165.00
2019-05-10T17:35:51.510Z,98173.00
2019-05-10T17:38:18.606Z,98162.00
2019-05-10T17:40:47.574Z,98174.00
2019-05-10T17:43:20.586Z,98179.00
2019-05-10T17:45:44.120Z,98185.00
2019-05-10T17:48:11.211Z,98181.00
2019-05-10T17:50:38.259Z,98185.00
2019-05-10T17:53:05.347Z,98188.00
2019-05-10T17:55:32.438Z,98187.00
2019-05-10T17:57:59.547Z,98196.00
2019-05-10T18:00:26.589Z,98198.00
2019-05-10T18:02:53.713Z,98198.00
2019-05-10T18:05:20.878Z,98197.00
2019-05-10T18:07:47.948Z,98202.00
2019-05-10T18:10:15.280Z,98199.00
2019-05-10T18:12:42.374Z,98197.00
2019-05-10T18:15:10.729Z,98193.00
2019-05-10T18:17:37.839Z,98201.00
2019-05-10T18:20:05.984Z,98200.00
2019-05-10T18:22:42.310Z,98201.00
2019-05-10T18:25:01.965Z,98204.00
2019-05-10T18:27:29.024Z,98203.00
2019-05-10T18:29:56.109Z,98203.00
2019-05-10T18:32:23.185Z,98207.00
2019-05-10T18:34:50.295Z,98208.00
2019-05-10T18:37:21.647Z,98203.00
2019-05-10T18:39:47.502Z,98216.00
2019-05-10T18:42:18.845Z,98218.00
2019-05-10T18:44:45.735Z,98227.00
2019-05-10T18:47:13.814Z,98224.00
2019-05-10T18:49:41.082Z,98225.00
2019-05-10T18:52:08.216Z,98226.00
2019-05-10T18:54:38.297Z,98230.00
2019-05-10T18:57:12.315Z,98236.00
2019-05-10T18:59:54.239Z,98247.00
2019-05-10T19:02:21.388Z,98249.00
2019-05-10T19:04:52.027Z,98249.00
2019-05-10T19:07:17.937Z,98251.00
2019-05-10T19:09:45.027Z,98250.00
2019-05-10T19:12:17.941Z,98250.00
2019-05-10T19:14:41.079Z,98254.00
2019-05-10T19:17:09.342Z,98262.00
2019-05-10T19:19:39.944Z,98264.00
2019-05-10T19:22:08.790Z,98279.00
2019-05-10T19:24:35.349Z,98279.00
2019-05-10T19:27:07.216Z,98264.00
2019-05-10T19:29:31.376Z,98278.00
2019-05-10T19:31:58.540Z,98279.00
2019-05-10T19:34:25.791Z,98279.00
2019-05-10T19:36:52.938Z,98288.00
2019-05-10T19:39:20.088Z,98288.00
2019-05-10T19:41:47.238Z,98282.00
2019-05-10T19:44:14.388Z,98279.00
2019-05-10T19:46:41.539Z,98284.00
2019-05-10T19:49:13.361Z,98294.00
2019-05-10T19:51:42.142Z,98294.00
2019-05-10T19:54:07.068Z,98297.00
2019-05-10T19:56:37.072Z,98307.00
2019-05-10T19:59:05.375Z,98300.00
2019-05-10T20:01:32.840Z,98317.00
2019-05-10T20:06:27.324Z,98303.00
2019-05-10T20:08:54.679Z,98305.00
2019-05-10T20:11:21.902Z,98301.00
2019-05-10T20:13:49.073Z,98309.00
2019-05-10T20:16:16.225Z,98299.00
2019-05-10T20:18:43.782Z,98309.00
2019-05-10T20:21:11.000Z,98300.00
2019-05-10T20:23:38.187Z,98302.00
2019-05-10T20:26:05.440Z,98307.00
2019-05-10T20:28:32.587Z,98300.00
2019-05-10T20:30:59.729Z,98292.00
2019-05-10T20:33:26.889Z,98290.00
2019-05-10T20:35:54.642Z,98306.00
2019-05-10T20:38:21.716Z,98299.00
2019-05-10T20:40:49.148Z,98311.00
2019-05-10T20:43:16.309Z,98310.00
2019-05-10T20:45:45.177Z,98321.00
2019-05-10T20:48:12.343Z,98327.00
2019-05-10T20:50:39.473Z,98319.00
2019-05-10T20:53:06.953Z,98324.00
2019-05-10T20:55:34.097Z,98324.00
2019-05-10T20:58:01.352Z,98319.00
2019-05-10T21:00:28.487Z,98315.00
2019-05-10T21:02:55.637Z,98314.00
2019-05-10T21:05:22.788Z,98312.00
2019-05-10T21:07:49.942Z,98308.00
2019-05-10T21:10:17.001Z,98317.00
2019-05-10T21:12:44.140Z,98319.00
2019-05-10T21:15:11.771Z,98316.00
2019-05-10T21:17:38.928Z,98320.00
2019-05-10T21:20:07.520Z,98315.00
2019-05-10T21:22:34.617Z,98313.00
2019-05-10T21:25:01.719Z,98309.00
2019-05-10T21:27:29.412Z,98310.00
2019-05-10T21:29:56.634Z,98303.00
2019-05-10T21:32:23.873Z,98309.00
2019-05-10T21:34:51.124Z,98307.00
2019-05-10T21:37:18.175Z,98312.00
2019-05-10T21:39:51.170Z,98303.00
2019-05-10T21:44:45.293Z,98298.00
2019-05-10T21:47:12.416Z,98300.00
2019-05-10T21:49:39.546Z,98297.00
2019-05-10T21:52:06.807Z,98296.00
2019-05-10T21:54:34.059Z,98301.00
2019-05-10T21:57:01.203Z,98300.00
2019-05-10T21:59:30.088Z,98296.00
2019-05-10T22:01:57.237Z,98293.00
2019-05-10T22:04:24.614Z,98292.00
2019-05-10T22:06:51.836Z,98293.00
2019-05-10T22:09:19.041Z,98293.00
2019-05-10T22:11:46.181Z,98288.00
2019-05-10T22:14:13.297Z,98288.00
2019-05-10T22:16:40.569Z,98295.00
2019-05-10T22:19:07.602Z,98295.00
2019-05-10T22:21:34.760Z,98298.00
2019-05-10T22:24:01.839Z,98302.00
2019-05-10T22:26:29.452Z,98298.00
2019-05-10T22:28:56.596Z,98294.00
2019-05-10T22:31:24.267Z,98287.00
2019-05-10T22:33:51.408Z,98272.00
2019-05-10T22:36:18.560Z,98279.00
2019-05-10T22:38:45.807Z,98280.00
2019-05-10T22:41:12.856Z,98285.00
2019-05-10T22:43:39.993Z,98286.00
2019-05-10T22:46:07.151Z,98280.00
2019-05-10T22:48:34.396Z,98266.00
2019-05-10T22:51:01.548Z,98262.00
2019-05-10T22:53:29.002Z,98259.00
2019-05-10T22:55:56.177Z,98254.00
2019-05-10T22:58:23.299Z,98260.00
2019-05-10T23:00:50.442Z,98258.00
2019-05-10T23:03:18.829Z,98256.00
2019-05-10T23:05:46.284Z,98265.00
2019-05-10T23:08:13.429Z,98259.00
2019-05-10T23:10:40.469Z,98257.00
2019-05-10T23:13:07.729Z,98257.00
2019-05-10T23:15:34.863Z,98245.00
2019-05-10T23:18:01.927Z,98243.00
2019-05-10T23:25:44.053Z,98255.00
2019-05-10T23:28:11.204Z,98248.00
2019-05-10T23:30:38.553Z,98237.00
2019-05-10T23:33:05.811Z,98233.00
2019-05-10T23:35:32.959Z,98233.00
2019-05-10T23:38:00.096Z,98243.00
2019-05-10T23:40:27.244Z,98239.00
2019-05-10T23:42:54.605Z,98246.00
2019-05-10T23:45:21.748Z,98248.00
2019-05-10T23:47:48.904Z,98260.00
2019-05-10T23:50:16.403Z,98262.00
2019-05-10T23:52:43.459Z,98274.00
2019-05-10T23:55:11.064Z,98272.00
2019-05-10T23:57:38.219Z,98257.00
